sensor_id;sensor_type;location;lat;lon;timestamp;temperature;humidity
14172;DHT22;7165;52.388;4.928;2024-01-30T00:02:13;8.60;99.90
14172;DHT22;7165;52.388;4.928;2024-01-30T00:04:40;8.60;99.90
14172;DHT22;7165;52.388;4.928;2024-01-30T00:07:07;8.60;99.90
14172;DHT22;7165;52.388;4.928;2024-01-30T00:09:33;8.60;99.90
14172;DHT22;7165;52.388;4.928;2024-01-30T00:12:00;8.70;99.90
14172;DHT22;7165;52.388;4.928;2024-01-30T00:14:27;8.60;99.90
14172;DHT22;7165;52.388;4.928;2024-01-30T00:16:53;8.60;99.90
14172;DHT22;7165;52.388;4.928;2024-01-30T00:19:21;8.60;99.90
14172;DHT22;7165;52.388;4.928;2024-01-30T00:21:48;8.60;99.90
14172;DHT22;7165;52.388;4.928;2024-01-30T00:24:14;8.60;99.90
14172;DHT22;7165;52.388;4.928;2024-01-30T00:26:41;8.70;99.90
14172;DHT22;7165;52.388;4.928;2024-01-30T00:29:08;8.60;99.90
14172;DHT22;7165;52.388;4.928;2024-01-30T00:31:34;8.60;99.90
14172;DHT22;7165;52.388;4.928;2024-01-30T00:34:01;8.60;99.90
14172;DHT22;7165;52.388;4.928;2024-01-30T00:36:29;8.70;99.90
14172;DHT22;7165;52.388;4.928;2024-01-30T00:38:56;8.60;99.90
14172;DHT22;7165;52.388;4.928;2024-01-30T00:41:22;8.60;99.90
14172;DHT22;7165;52.388;4.928;2024-01-30T00:43:49;8.70;99.90
14172;DHT22;7165;52.388;4.928;2024-01-30T00:46:16;8.70;99.90
14172;DHT22;7165;52.388;4.928;2024-01-30T00:48:42;8.70;99.90
14172;DHT22;7165;52.388;4.928;2024-01-30T00:51:09;8.60;99.90
14172;DHT22;7165;52.388;4.928;2024-01-30T00:53:37;8.70;99.90
14172;DHT22;7165;52.388;4.928;2024-01-30T00:56:04;8.70;99.90
14172;DHT22;7165;52.388;4.928;2024-01-30T00:58:31;8.70;99.90
14172;DHT22;7165;52.388;4.928;2024-01-30T01:00:57;8.70;99.90
14172;DHT22;7165;52.388;4.928;2024-01-30T01:03:24;8.80;99.90
14172;DHT22;7165;52.388;4.928;2024-01-30T01:05:51;8.80;99.90
14172;DHT22;7165;52.388;4.928;2024-01-30T01:08:17;8.80;99.90
14172;DHT22;7165;52.388;4.928;2024-01-30T01:10:45;8.80;99.90
14172;DHT22;7165;52.388;4.928;2024-01-30T01:13:12;8.80;99.90
14172;DHT22;7165;52.388;4.928;2024-01-30T01:15:38;8.70;99.90
14172;DHT22;7165;52.388;4.928;2024-01-30T01:18:05;8.70;99.90
14172;DHT22;7165;52.388;4.928;2024-01-30T01:20:32;8.70;99.90
14172;DHT22;7165;52.388;4.928;2024-01-30T01:22:58;8.70;99.90
14172;DHT22;7165;52.388;4.928;2024-01-30T01:25:25;8.70;99.90
14172;DHT22;7165;52.388;4.928;2024-01-30T01:27:53;8.70;99.90
14172;DHT22;7165;52.388;4.928;2024-01-30T01:30:20;8.80;99.90
14172;DHT22;7165;52.388;4.928;2024-01-30T01:32:48;8.70;99.90
14172;DHT22;7165;52.388;4.928;2024-01-30T01:35:20;8.70;99.90
14172;DHT22;7165;52.388;4.928;2024-01-30T01:37:48;8.70;99.90
14172;DHT22;7165;52.388;4.928;2024-01-30T01:40:20;8.70;99.90
14172;DHT22;7165;52.388;4.928;2024-01-30T01:42:47;8.70;99.90
14172;DHT22;7165;52.388;4.928;2024-01-30T01:45:15;8.70;99.90
14172;DHT22;7165;52.388;4.928;2024-01-30T01:47:41;8.80;99.90
14172;DHT22;7165;52.388;4.928;2024-01-30T01:50:11;8.80;99.90
14172;DHT22;7165;52.388;4.928;2024-01-30T01:52:38;8.80;99.90
14172;DHT22;7165;52.388;4.928;2024-01-30T01:55:05;8.80;99.90
14172;DHT22;7165;52.388;4.928;2024-01-30T01:57:33;8.80;99.90
14172;DHT22;7165;52.388;4.928;2024-01-30T01:59:59;8.90;99.90
14172;DHT22;7165;52.388;4.928;2024-01-30T02:02:28;8.90;99.90
14172;DHT22;7165;52.388;4.928;2024-01-30T02:04:56;8.90;99.90
14172;DHT22;7165;52.388;4.928;2024-01-30T02:07:23;8.90;99.90
14172;DHT22;7165;52.388;4.928;2024-01-30T02:09:50;8.80;99.90
14172;DHT22;7165;52.388;4.928;2024-01-30T02:12:16;8.80;99.90
14172;DHT22;7165;52.388;4.928;2024-01-30T02:14:46;8.80;99.90
14172;DHT22;7165;52.388;4.928;2024-01-30T02:17:13;8.80;99.90
14172;DHT22;7165;52.388;4.928;2024-01-30T02:19:41;8.80;99.90
14172;DHT22;7165;52.388;4.928;2024-01-30T02:22:09;8.80;99.90
14172;DHT22;7165;52.388;4.928;2024-01-30T02:24:36;8.80;99.90
14172;DHT22;7165;52.388;4.928;2024-01-30T02:27:02;8.80;99.90
14172;DHT22;7165;52.388;4.928;2024-01-30T02:29:29;8.80;99.90
14172;DHT22;7165;52.388;4.928;2024-01-30T02:31:56;8.80;99.90
14172;DHT22;7165;52.388;4.928;2024-01-30T02:34:23;8.80;99.90
14172;DHT22;7165;52.388;4.928;2024-01-30T02:36:49;8.90;99.90
14172;DHT22;7165;52.388;4.928;2024-01-30T02:39:17;8.90;99.90
14172;DHT22;7165;52.388;4.928;2024-01-30T02:41:44;8.90;99.90
14172;DHT22;7165;52.388;4.928;2024-01-30T02:44:11;8.90;99.90
14172;DHT22;7165;52.388;4.928;2024-01-30T02:46:37;8.90;99.90
14172;DHT22;7165;52.388;4.928;2024-01-30T02:49:04;8.90;99.90
14172;DHT22;7165;52.388;4.928;2024-01-30T02:51:31;8.90;99.90
14172;DHT22;7165;52.388;4.928;2024-01-30T02:53:57;8.90;99.90
14172;DHT22;7165;52.388;4.928;2024-01-30T02:56:25;8.80;99.90
14172;DHT22;7165;52.388;4.928;2024-01-30T02:58:52;8.80;99.90
14172;DHT22;7165;52.388;4.928;2024-01-30T03:01:17;8.80;99.90
14172;DHT22;7165;52.388;4.928;2024-01-30T03:03:44;8.80;99.90
14172;DHT22;7165;52.388;4.928;2024-01-30T03:06:11;8.80;99.90
14172;DHT22;7165;52.388;4.928;2024-01-30T03:08:37;8.80;99.90
14172;DHT22;7165;52.388;4.928;2024-01-30T03:11:04;8.70;99.90
14172;DHT22;7165;52.388;4.928;2024-01-30T03:13:32;8.70;99.90
14172;DHT22;7165;52.388;4.928;2024-01-30T03:15:59;8.70;99.90
14172;DHT22;7165;52.388;4.928;2024-01-30T03:18:25;8.70;99.90
14172;DHT22;7165;52.388;4.928;2024-01-30T03:20:52;8.80;99.90
14172;DHT22;7165;52.388;4.928;2024-01-30T03:23:19;8.80;99.90
14172;DHT22;7165;52.388;4.928;2024-01-30T03:25:45;8.80;99.90
14172;DHT22;7165;52.388;4.928;2024-01-30T03:28:12;8.80;99.90
14172;DHT22;7165;52.388;4.928;2024-01-30T03:30:40;8.80;99.90
14172;DHT22;7165;52.388;4.928;2024-01-30T03:33:06;8.80;99.90
14172;DHT22;7165;52.388;4.928;2024-01-30T03:35:33;8.80;99.90
14172;DHT22;7165;52.388;4.928;2024-01-30T03:38:00;8.80;99.90
14172;DHT22;7165;52.388;4.928;2024-01-30T03:40:26;8.80;99.90
14172;DHT22;7165;52.388;4.928;2024-01-30T03:42:53;8.80;99.90
14172;DHT22;7165;52.388;4.928;2024-01-30T03:45:20;8.80;99.90
14172;DHT22;7165;52.388;4.928;2024-01-30T03:47:48;8.80;99.90
14172;DHT22;7165;52.388;4.928;2024-01-30T03:50:14;8.80;99.90
14172;DHT22;7165;52.388;4.928;2024-01-30T03:52:41;8.80;99.90
14172;DHT22;7165;52.388;4.928;2024-01-30T03:55:08;8.80;99.90
14172;DHT22;7165;52.388;4.928;2024-01-30T03:57:34;8.80;99.90
14172;DHT22;7165;52.388;4.928;2024-01-30T04:00:01;8.80;99.90
14172;DHT22;7165;52.388;4.928;2024-01-30T04:02:30;8.80;99.90
14172;DHT22;7165;52.388;4.928;2024-01-30T04:04:58;8.90;99.90
14172;DHT22;7165;52.388;4.928;2024-01-30T04:07:25;8.90;99.90
14172;DHT22;7165;52.388;4.928;2024-01-30T04:09:51;8.90;99.90
14172;DHT22;7165;52.388;4.928;2024-01-30T04:12:18;8.90;99.90
14172;DHT22;7165;52.388;4.928;2024-01-30T04:14:45;8.90;99.90
14172;DHT22;7165;52.388;4.928;2024-01-30T04:17:11;9.00;99.90
14172;DHT22;7165;52.388;4.928;2024-01-30T04:19:38;9.00;99.90
14172;DHT22;7165;52.388;4.928;2024-01-30T04:22:06;9.00;99.90
14172;DHT22;7165;52.388;4.928;2024-01-30T04:24:33;9.00;99.90
14172;DHT22;7165;52.388;4.928;2024-01-30T04:27:00;9.10;99.90
14172;DHT22;7165;52.388;4.928;2024-01-30T04:29:26;9.00;99.90
14172;DHT22;7165;52.388;4.928;2024-01-30T04:31:53;9.00;99.90
14172;DHT22;7165;52.388;4.928;2024-01-30T04:34:20;9.00;99.90
14172;DHT22;7165;52.388;4.928;2024-01-30T04:36:46;9.00;99.90
14172;DHT22;7165;52.388;4.928;2024-01-30T04:39:14;9.00;99.90
14172;DHT22;7165;52.388;4.928;2024-01-30T04:41:41;9.10;99.90
14172;DHT22;7165;52.388;4.928;2024-01-30T04:44:08;9.10;99.90
14172;DHT22;7165;52.388;4.928;2024-01-30T04:46:34;9.10;99.90
14172;DHT22;7165;52.388;4.928;2024-01-30T04:49:01;9.10;99.90
14172;DHT22;7165;52.388;4.928;2024-01-30T04:51:28;9.10;99.90
14172;DHT22;7165;52.388;4.928;2024-01-30T04:53:55;9.10;99.90
14172;DHT22;7165;52.388;4.928;2024-01-30T04:56:23;9.10;99.90
14172;DHT22;7165;52.388;4.928;2024-01-30T04:58:50;9.10;99.90
14172;DHT22;7165;52.388;4.928;2024-01-30T05:01:16;9.10;99.90
14172;DHT22;7165;52.388;4.928;2024-01-30T05:03:43;9.10;99.90
14172;DHT22;7165;52.388;4.928;2024-01-30T05:06:10;9.10;99.90
14172;DHT22;7165;52.388;4.928;2024-01-30T05:08:36;9.10;99.90
14172;DHT22;7165;52.388;4.928;2024-01-30T05:11:04;9.10;99.90
14172;DHT22;7165;52.388;4.928;2024-01-30T05:13:32;9.10;99.90
14172;DHT22;7165;52.388;4.928;2024-01-30T05:15:59;9.10;99.90
14172;DHT22;7165;52.388;4.928;2024-01-30T05:18:29;9.10;99.90
14172;DHT22;7165;52.388;4.928;2024-01-30T05:20:56;9.10;99.90
14172;DHT22;7165;52.388;4.928;2024-01-30T05:23:23;9.10;99.90
14172;DHT22;7165;52.388;4.928;2024-01-30T05:25:49;9.10;99.90
14172;DHT22;7165;52.388;4.928;2024-01-30T05:28:16;9.10;99.90
14172;DHT22;7165;52.388;4.928;2024-01-30T05:30:44;9.10;99.90
14172;DHT22;7165;52.388;4.928;2024-01-30T05:33:11;9.10;99.90
14172;DHT22;7165;52.388;4.928;2024-01-30T05:35:38;9.10;99.90
14172;DHT22;7165;52.388;4.928;2024-01-30T05:38:05;9.10;99.90
14172;DHT22;7165;52.388;4.928;2024-01-30T05:40:31;9.10;99.90
14172;DHT22;7165;52.388;4.928;2024-01-30T05:42:58;9.10;99.90
14172;DHT22;7165;52.388;4.928;2024-01-30T05:45:26;9.10;99.90
14172;DHT22;7165;52.388;4.928;2024-01-30T05:47:54;9.10;99.90
14172;DHT22;7165;52.388;4.928;2024-01-30T05:50:20;9.10;99.90
14172;DHT22;7165;52.388;4.928;2024-01-30T05:52:48;9.00;99.90
14172;DHT22;7165;52.388;4.928;2024-01-30T05:55:15;9.00;99.90
14172;DHT22;7165;52.388;4.928;2024-01-30T05:57:41;9.00;99.90
14172;DHT22;7165;52.388;4.928;2024-01-30T06:00:08;9.00;99.90
14172;DHT22;7165;52.388;4.928;2024-01-30T06:02:35;9.00;99.90
14172;DHT22;7165;52.388;4.928;2024-01-30T06:05:03;9.00;99.90
14172;DHT22;7165;52.388;4.928;2024-01-30T06:07:30;9.00;99.90
14172;DHT22;7165;52.388;4.928;2024-01-30T06:09:57;9.00;99.90
14172;DHT22;7165;52.388;4.928;2024-01-30T06:12:26;9.00;99.90
14172;DHT22;7165;52.388;4.928;2024-01-30T06:14:53;9.00;99.90
14172;DHT22;7165;52.388;4.928;2024-01-30T06:17:22;9.00;99.90
14172;DHT22;7165;52.388;4.928;2024-01-30T06:19:48;9.00;99.90
14172;DHT22;7165;52.388;4.928;2024-01-30T06:22:16;9.00;99.90
14172;DHT22;7165;52.388;4.928;2024-01-30T06:24:43;9.00;99.90
14172;DHT22;7165;52.388;4.928;2024-01-30T06:27:10;9.10;99.90
14172;DHT22;7165;52.388;4.928;2024-01-30T06:29:37;9.10;99.90
14172;DHT22;7165;52.388;4.928;2024-01-30T06:32:04;9.10;99.90
14172;DHT22;7165;52.388;4.928;2024-01-30T06:34:31;9.10;99.90
14172;DHT22;7165;52.388;4.928;2024-01-30T06:36:57;9.10;99.90
14172;DHT22;7165;52.388;4.928;2024-01-30T06:39:25;9.10;99.90
14172;DHT22;7165;52.388;4.928;2024-01-30T06:41:52;9.10;99.90
14172;DHT22;7165;52.388;4.928;2024-01-30T06:44:19;9.10;99.90
14172;DHT22;7165;52.388;4.928;2024-01-30T06:46:45;9.10;99.90
14172;DHT22;7165;52.388;4.928;2024-01-30T06:49:12;9.10;99.90
14172;DHT22;7165;52.388;4.928;2024-01-30T06:51:39;9.20;99.90
14172;DHT22;7165;52.388;4.928;2024-01-30T06:54:05;9.20;99.90
14172;DHT22;7165;52.388;4.928;2024-01-30T06:56:33;9.20;99.90
14172;DHT22;7165;52.388;4.928;2024-01-30T06:59:01;9.20;99.90
14172;DHT22;7165;52.388;4.928;2024-01-30T07:01:27;9.20;99.90
14172;DHT22;7165;52.388;4.928;2024-01-30T07:03:54;9.20;99.90
14172;DHT22;7165;52.388;4.928;2024-01-30T07:06:21;9.20;99.90
14172;DHT22;7165;52.388;4.928;2024-01-30T07:08:48;9.30;99.90
14172;DHT22;7165;52.388;4.928;2024-01-30T07:11:18;9.30;99.90
14172;DHT22;7165;52.388;4.928;2024-01-30T07:13:46;9.30;99.90
14172;DHT22;7165;52.388;4.928;2024-01-30T07:16:13;9.30;99.90
14172;DHT22;7165;52.388;4.928;2024-01-30T07:18:40;9.30;99.90
14172;DHT22;7165;52.388;4.928;2024-01-30T07:21:06;9.30;99.90
14172;DHT22;7165;52.388;4.928;2024-01-30T07:23:33;9.30;99.90
14172;DHT22;7165;52.388;4.928;2024-01-30T07:26:00;9.30;99.90
14172;DHT22;7165;52.388;4.928;2024-01-30T07:28:27;9.40;99.90
14172;DHT22;7165;52.388;4.928;2024-01-30T07:30:55;9.40;99.90
14172;DHT22;7165;52.388;4.928;2024-01-30T07:33:22;9.50;99.90
14172;DHT22;7165;52.388;4.928;2024-01-30T07:35:48;9.50;99.90
14172;DHT22;7165;52.388;4.928;2024-01-30T07:38:15;9.60;99.90
14172;DHT22;7165;52.388;4.928;2024-01-30T07:40:42;9.60;99.90
14172;DHT22;7165;52.388;4.928;2024-01-30T07:43:09;9.60;99.90
14172;DHT22;7165;52.388;4.928;2024-01-30T07:45:35;9.60;99.90
14172;DHT22;7165;52.388;4.928;2024-01-30T07:48:05;9.60;99.90
14172;DHT22;7165;52.388;4.928;2024-01-30T07:50:31;9.60;99.90
14172;DHT22;7165;52.388;4.928;2024-01-30T07:52:59;9.60;99.90
14172;DHT22;7165;52.388;4.928;2024-01-30T07:55:26;9.70;99.90
14172;DHT22;7165;52.388;4.928;2024-01-30T07:57:54;9.70;99.90
14172;DHT22;7165;52.388;4.928;2024-01-30T08:00:21;9.70;99.90
14172;DHT22;7165;52.388;4.928;2024-01-30T08:02:48;9.70;99.90
14172;DHT22;7165;52.388;4.928;2024-01-30T08:05:16;9.70;99.90
14172;DHT22;7165;52.388;4.928;2024-01-30T08:07:42;9.70;99.90
14172;DHT22;7165;52.388;4.928;2024-01-30T08:10:11;9.80;99.90
14172;DHT22;7165;52.388;4.928;2024-01-30T08:12:37;9.80;99.90
14172;DHT22;7165;52.388;4.928;2024-01-30T08:15:04;9.90;99.90
14172;DHT22;7165;52.388;4.928;2024-01-30T08:17:31;9.90;99.90
14172;DHT22;7165;52.388;4.928;2024-01-30T08:19:58;9.90;99.90
14172;DHT22;7165;52.388;4.928;2024-01-30T08:22:26;9.90;99.90
14172;DHT22;7165;52.388;4.928;2024-01-30T08:24:53;10.00;99.90
14172;DHT22;7165;52.388;4.928;2024-01-30T08:27:19;10.00;99.90
14172;DHT22;7165;52.388;4.928;2024-01-30T08:29:46;10.00;99.90
14172;DHT22;7165;52.388;4.928;2024-01-30T08:32:13;10.00;99.90
14172;DHT22;7165;52.388;4.928;2024-01-30T08:34:40;10.10;99.90
14172;DHT22;7165;52.388;4.928;2024-01-30T08:37:07;10.10;99.90
14172;DHT22;7165;52.388;4.928;2024-01-30T08:39:35;10.10;99.90
14172;DHT22;7165;52.388;4.928;2024-01-30T08:42:02;10.20;99.90
14172;DHT22;7165;52.388;4.928;2024-01-30T08:44:29;10.20;99.90
14172;DHT22;7165;52.388;4.928;2024-01-30T08:46:55;10.20;99.90
14172;DHT22;7165;52.388;4.928;2024-01-30T08:49:22;10.20;99.90
14172;DHT22;7165;52.388;4.928;2024-01-30T08:51:49;10.30;99.90
14172;DHT22;7165;52.388;4.928;2024-01-30T08:54:16;10.30;99.90
14172;DHT22;7165;52.388;4.928;2024-01-30T08:56:45;10.40;99.90
14172;DHT22;7165;52.388;4.928;2024-01-30T08:59:12;10.40;99.90
14172;DHT22;7165;52.388;4.928;2024-01-30T09:01:39;10.50;99.90
14172;DHT22;7165;52.388;4.928;2024-01-30T09:04:06;10.50;99.90
14172;DHT22;7165;52.388;4.928;2024-01-30T09:06:32;10.60;99.90
14172;DHT22;7165;52.388;4.928;2024-01-30T09:08:59;10.60;99.90
14172;DHT22;7165;52.388;4.928;2024-01-30T09:11:26;10.70;99.90
14172;DHT22;7165;52.388;4.928;2024-01-30T09:13:54;10.70;99.90
14172;DHT22;7165;52.388;4.928;2024-01-30T09:16:21;10.80;99.90
14172;DHT22;7165;52.388;4.928;2024-01-30T09:18:48;10.80;99.90
14172;DHT22;7165;52.388;4.928;2024-01-30T09:21:15;10.80;99.90
14172;DHT22;7165;52.388;4.928;2024-01-30T09:23:42;10.90;99.90
14172;DHT22;7165;52.388;4.928;2024-01-30T09:26:09;10.90;99.90
14172;DHT22;7165;52.388;4.928;2024-01-30T09:28:36;11.00;99.90
14172;DHT22;7165;52.388;4.928;2024-01-30T09:31:09;11.00;99.90
14172;DHT22;7165;52.388;4.928;2024-01-30T09:33:37;11.10;99.90
14172;DHT22;7165;52.388;4.928;2024-01-30T09:36:05;11.00;99.90
14172;DHT22;7165;52.388;4.928;2024-01-30T09:38:31;11.10;99.90
14172;DHT22;7165;52.388;4.928;2024-01-30T09:40:59;11.10;99.90
14172;DHT22;7165;52.388;4.928;2024-01-30T09:43:30;11.10;99.90
14172;DHT22;7165;52.388;4.928;2024-01-30T09:45:59;11.20;99.90
14172;DHT22;7165;52.388;4.928;2024-01-30T09:48:30;11.10;99.90
14172;DHT22;7165;52.388;4.928;2024-01-30T09:50:57;11.10;99.90
14172;DHT22;7165;52.388;4.928;2024-01-30T09:53:23;11.10;99.90
14172;DHT22;7165;52.388;4.928;2024-01-30T09:55:50;11.00;99.90
14172;DHT22;7165;52.388;4.928;2024-01-30T09:58:17;11.00;99.90
14172;DHT22;7165;52.388;4.928;2024-01-30T10:00:44;11.00;99.90
14172;DHT22;7165;52.388;4.928;2024-01-30T10:03:10;10.90;99.90
14172;DHT22;7165;52.388;4.928;2024-01-30T10:05:41;10.90;99.90
14172;DHT22;7165;52.388;4.928;2024-01-30T10:08:12;10.80;99.90
14172;DHT22;7165;52.388;4.928;2024-01-30T10:10:39;10.80;99.90
14172;DHT22;7165;52.388;4.928;2024-01-30T10:13:05;10.70;99.90
14172;DHT22;7165;52.388;4.928;2024-01-30T10:15:32;10.60;99.90
14172;DHT22;7165;52.388;4.928;2024-01-30T10:18:00;10.50;99.90
14172;DHT22;7165;52.388;4.928;2024-01-30T10:20:27;10.50;99.90
14172;DHT22;7165;52.388;4.928;2024-01-30T10:22:57;10.40;99.90
14172;DHT22;7165;52.388;4.928;2024-01-30T10:25:39;10.40;99.90
14172;DHT22;7165;52.388;4.928;2024-01-30T10:28:07;10.40;99.90
14172;DHT22;7165;52.388;4.928;2024-01-30T10:30:33;10.40;99.90
14172;DHT22;7165;52.388;4.928;2024-01-30T10:33:00;10.30;99.90
14172;DHT22;7165;52.388;4.928;2024-01-30T10:35:27;10.30;99.90
14172;DHT22;7165;52.388;4.928;2024-01-30T10:37:54;10.30;99.90
14172;DHT22;7165;52.388;4.928;2024-01-30T10:40:25;10.30;99.90
14172;DHT22;7165;52.388;4.928;2024-01-30T10:42:53;10.20;99.90
14172;DHT22;7165;52.388;4.928;2024-01-30T10:45:22;10.20;99.90
14172;DHT22;7165;52.388;4.928;2024-01-30T10:47:49;10.20;99.90
14172;DHT22;7165;52.388;4.928;2024-01-30T10:50:16;10.20;99.90
14172;DHT22;7165;52.388;4.928;2024-01-30T10:52:43;10.10;99.90
14172;DHT22;7165;52.388;4.928;2024-01-30T10:55:10;10.10;99.90
14172;DHT22;7165;52.388;4.928;2024-01-30T10:57:38;10.00;99.90
14172;DHT22;7165;52.388;4.928;2024-01-30T11:00:05;10.00;99.90
14172;DHT22;7165;52.388;4.928;2024-01-30T11:02:36;10.00;99.90
14172;DHT22;7165;52.388;4.928;2024-01-30T11:05:04;10.00;99.90
14172;DHT22;7165;52.388;4.928;2024-01-30T11:07:31;10.10;99.90
14172;DHT22;7165;52.388;4.928;2024-01-30T11:10:01;10.00;99.90
14172;DHT22;7165;52.388;4.928;2024-01-30T11:12:29;10.00;99.90
14172;DHT22;7165;52.388;4.928;2024-01-30T11:15:03;9.90;99.90
14172;DHT22;7165;52.388;4.928;2024-01-30T11:17:39;9.80;99.90
14172;DHT22;7165;52.388;4.928;2024-01-30T11:20:09;9.80;99.90
14172;DHT22;7165;52.388;4.928;2024-01-30T11:22:35;9.70;99.90
14172;DHT22;7165;52.388;4.928;2024-01-30T11:25:02;9.60;99.90
14172;DHT22;7165;52.388;4.928;2024-01-30T11:27:30;9.60;99.90
14172;DHT22;7165;52.388;4.928;2024-01-30T11:30:00;9.60;99.90
14172;DHT22;7165;52.388;4.928;2024-01-30T11:32:28;9.50;99.90
14172;DHT22;7165;52.388;4.928;2024-01-30T11:34:55;9.50;99.90
14172;DHT22;7165;52.388;4.928;2024-01-30T11:37:22;9.60;99.90
14172;DHT22;7165;52.388;4.928;2024-01-30T11:39:51;9.60;99.90
14172;DHT22;7165;52.388;4.928;2024-01-30T11:42:19;9.60;99.90
14172;DHT22;7165;52.388;4.928;2024-01-30T11:44:46;9.60;99.90
14172;DHT22;7165;52.388;4.928;2024-01-30T11:47:13;9.60;99.90
14172;DHT22;7165;52.388;4.928;2024-01-30T11:49:42;9.60;99.90
14172;DHT22;7165;52.388;4.928;2024-01-30T11:52:09;9.60;99.90
14172;DHT22;7165;52.388;4.928;2024-01-30T11:54:38;9.60;99.90
14172;DHT22;7165;52.388;4.928;2024-01-30T11:57:05;9.70;99.90
14172;DHT22;7165;52.388;4.928;2024-01-30T11:59:32;9.70;99.90
14172;DHT22;7165;52.388;4.928;2024-01-30T12:01:59;9.70;99.90
14172;DHT22;7165;52.388;4.928;2024-01-30T12:04:27;9.70;99.90
14172;DHT22;7165;52.388;4.928;2024-01-30T12:06:55;9.80;99.90
14172;DHT22;7165;52.388;4.928;2024-01-30T12:09:22;9.80;99.90
14172;DHT22;7165;52.388;4.928;2024-01-30T12:11:49;9.70;99.90
14172;DHT22;7165;52.388;4.928;2024-01-30T12:14:16;9.70;99.90
14172;DHT22;7165;52.388;4.928;2024-01-30T12:16:43;9.70;99.90
14172;DHT22;7165;52.388;4.928;2024-01-30T12:19:09;9.70;99.90
14172;DHT22;7165;52.388;4.928;2024-01-30T12:21:37;9.70;99.90
14172;DHT22;7165;52.388;4.928;2024-01-30T12:24:06;9.70;99.90
14172;DHT22;7165;52.388;4.928;2024-01-30T12:26:33;9.60;99.90
14172;DHT22;7165;52.388;4.928;2024-01-30T12:29:00;9.60;99.90
14172;DHT22;7165;52.388;4.928;2024-01-30T12:31:27;9.50;99.90
14172;DHT22;7165;52.388;4.928;2024-01-30T12:33:54;9.50;99.90
14172;DHT22;7165;52.388;4.928;2024-01-30T12:36:20;9.50;99.90
14172;DHT22;7165;52.388;4.928;2024-01-30T12:38:47;9.50;99.90
14172;DHT22;7165;52.388;4.928;2024-01-30T12:41:15;9.50;99.90
14172;DHT22;7165;52.388;4.928;2024-01-30T12:43:42;9.50;99.90
14172;DHT22;7165;52.388;4.928;2024-01-30T12:46:09;9.50;99.90
14172;DHT22;7165;52.388;4.928;2024-01-30T12:48:36;9.50;99.90
14172;DHT22;7165;52.388;4.928;2024-01-30T12:51:02;9.50;99.90
14172;DHT22;7165;52.388;4.928;2024-01-30T12:53:29;9.50;99.90
14172;DHT22;7165;52.388;4.928;2024-01-30T12:55:56;9.60;99.90
14172;DHT22;7165;52.388;4.928;2024-01-30T12:58:24;9.60;99.90
14172;DHT22;7165;52.388;4.928;2024-01-30T13:00:51;9.60;99.90
14172;DHT22;7165;52.388;4.928;2024-01-30T13:03:18;9.60;99.90
14172;DHT22;7165;52.388;4.928;2024-01-30T13:05:44;9.60;99.90
14172;DHT22;7165;52.388;4.928;2024-01-30T13:08:11;9.60;99.90
14172;DHT22;7165;52.388;4.928;2024-01-30T13:10:38;9.60;99.90
14172;DHT22;7165;52.388;4.928;2024-01-30T13:13:04;9.60;99.90
14172;DHT22;7165;52.388;4.928;2024-01-30T13:15:32;9.60;99.90
14172;DHT22;7165;52.388;4.928;2024-01-30T13:17:59;9.60;99.90
14172;DHT22;7165;52.388;4.928;2024-01-30T13:20:25;9.60;99.90
14172;DHT22;7165;52.388;4.928;2024-01-30T13:22:52;9.60;99.90
14172;DHT22;7165;52.388;4.928;2024-01-30T13:25:19;9.50;99.90
14172;DHT22;7165;52.388;4.928;2024-01-30T13:27:45;9.50;99.90
14172;DHT22;7165;52.388;4.928;2024-01-30T13:30:12;9.50;99.90
14172;DHT22;7165;52.388;4.928;2024-01-30T13:32:40;9.40;99.90
14172;DHT22;7165;52.388;4.928;2024-01-30T13:35:09;9.40;99.90
14172;DHT22;7165;52.388;4.928;2024-01-30T13:37:36;9.30;99.90
14172;DHT22;7165;52.388;4.928;2024-01-30T13:40:03;9.30;99.90
14172;DHT22;7165;52.388;4.928;2024-01-30T13:42:32;9.30;99.90
14172;DHT22;7165;52.388;4.928;2024-01-30T13:44:58;9.20;99.90
14172;DHT22;7165;52.388;4.928;2024-01-30T13:47:25;9.20;99.90
14172;DHT22;7165;52.388;4.928;2024-01-30T13:49:53;9.20;99.90
14172;DHT22;7165;52.388;4.928;2024-01-30T13:52:20;9.20;99.90
14172;DHT22;7165;52.388;4.928;2024-01-30T13:54:46;9.20;99.90
14172;DHT22;7165;52.388;4.928;2024-01-30T13:57:13;9.20;99.90
14172;DHT22;7165;52.388;4.928;2024-01-30T13:59:40;9.10;99.90
14172;DHT22;7165;52.388;4.928;2024-01-30T14:02:06;9.10;99.90
14172;DHT22;7165;52.388;4.928;2024-01-30T14:04:35;9.10;99.90
14172;DHT22;7165;52.388;4.928;2024-01-30T14:07:04;9.10;99.90
14172;DHT22;7165;52.388;4.928;2024-01-30T14:09:31;9.00;99.90
14172;DHT22;7165;52.388;4.928;2024-01-30T14:11:58;9.00;99.90
14172;DHT22;7165;52.388;4.928;2024-01-30T14:14:25;9.00;99.90
14172;DHT22;7165;52.388;4.928;2024-01-30T14:16:51;9.00;99.90
14172;DHT22;7165;52.388;4.928;2024-01-30T14:19:18;9.00;99.90
14172;DHT22;7165;52.388;4.928;2024-01-30T14:21:44;9.00;99.90
14172;DHT22;7165;52.388;4.928;2024-01-30T14:24:12;9.00;99.90
14172;DHT22;7165;52.388;4.928;2024-01-30T14:26:39;9.00;99.90
14172;DHT22;7165;52.388;4.928;2024-01-30T14:29:06;9.00;99.90
14172;DHT22;7165;52.388;4.928;2024-01-30T14:31:32;9.00;99.90
14172;DHT22;7165;52.388;4.928;2024-01-30T14:33:59;9.00;99.90
14172;DHT22;7165;52.388;4.928;2024-01-30T14:36:26;9.00;99.90
14172;DHT22;7165;52.388;4.928;2024-01-30T14:38:53;9.00;99.90
14172;DHT22;7165;52.388;4.928;2024-01-30T14:41:21;9.00;99.90
14172;DHT22;7165;52.388;4.928;2024-01-30T14:43:48;9.00;99.90
14172;DHT22;7165;52.388;4.928;2024-01-30T14:46:15;8.90;99.90
14172;DHT22;7165;52.388;4.928;2024-01-30T14:48:41;8.90;99.90
14172;DHT22;7165;52.388;4.928;2024-01-30T14:51:08;8.90;99.90
14172;DHT22;7165;52.388;4.928;2024-01-30T14:53:35;8.90;99.90
14172;DHT22;7165;52.388;4.928;2024-01-30T14:56:02;8.90;99.90
14172;DHT22;7165;52.388;4.928;2024-01-30T14:58:30;8.90;99.90
14172;DHT22;7165;52.388;4.928;2024-01-30T15:00:57;8.90;99.90
14172;DHT22;7165;52.388;4.928;2024-01-30T15:03:23;8.90;99.90
14172;DHT22;7165;52.388;4.928;2024-01-30T15:05:50;8.80;99.90
14172;DHT22;7165;52.388;4.928;2024-01-30T15:08:17;8.80;99.90
14172;DHT22;7165;52.388;4.928;2024-01-30T15:10:43;8.80;99.90
14172;DHT22;7165;52.388;4.928;2024-01-30T15:13:10;8.80;99.90
14172;DHT22;7165;52.388;4.928;2024-01-30T15:15:38;8.80;99.90
14172;DHT22;7165;52.388;4.928;2024-01-30T15:18:05;8.70;99.90
14172;DHT22;7165;52.388;4.928;2024-01-30T15:20:32;8.70;99.90
14172;DHT22;7165;52.388;4.928;2024-01-30T15:22:58;8.60;99.90
14172;DHT22;7165;52.388;4.928;2024-01-30T15:25:25;8.60;99.90
14172;DHT22;7165;52.388;4.928;2024-01-30T15:27:54;8.60;99.90
14172;DHT22;7165;52.388;4.928;2024-01-30T15:30:21;8.60;99.90
14172;DHT22;7165;52.388;4.928;2024-01-30T15:32:49;8.60;99.90
14172;DHT22;7165;52.388;4.928;2024-01-30T15:35:16;8.60;99.90
14172;DHT22;7165;52.388;4.928;2024-01-30T15:37:43;8.60;99.90
14172;DHT22;7165;52.388;4.928;2024-01-30T15:40:11;8.50;99.90
14172;DHT22;7165;52.388;4.928;2024-01-30T15:42:38;8.50;99.90
14172;DHT22;7165;52.388;4.928;2024-01-30T15:45:05;8.50;99.90
14172;DHT22;7165;52.388;4.928;2024-01-30T15:47:32;8.50;99.90
14172;DHT22;7165;52.388;4.928;2024-01-30T15:50:00;8.40;99.90
14172;DHT22;7165;52.388;4.928;2024-01-30T15:52:27;8.40;99.90
14172;DHT22;7165;52.388;4.928;2024-01-30T15:54:54;8.40;99.90
14172;DHT22;7165;52.388;4.928;2024-01-30T15:57:21;8.40;99.90
14172;DHT22;7165;52.388;4.928;2024-01-30T15:59:48;8.40;99.90